sensor_id;sensor_type;location;lat;lon;timestamp;temperature;humidity
66722;SHT31;53633;49.932;10.884;2022-08-11T00:02:24;18.02;55.69
66722;SHT31;53633;49.932;10.884;2022-08-11T00:04:53;17.98;55.95
66722;SHT31;53633;49.932;10.884;2022-08-11T00:07:21;17.82;56.05
66722;SHT31;53633;49.932;10.884;2022-08-11T00:09:49;17.92;56.18
66722;SHT31;53633;49.932;10.884;2022-08-11T00:12:16;17.81;56.03
66722;SHT31;53633;49.932;10.884;2022-08-11T00:14:45;17.93;56.39
66722;SHT31;53633;49.932;10.884;2022-08-11T00:17:26;17.79;56.51
66722;SHT31;53633;49.932;10.884;2022-08-11T00:20:01;17.54;56.77
66722;SHT31;53633;49.932;10.884;2022-08-11T00:22:43;17.50;56.51
66722;SHT31;53633;49.932;10.884;2022-08-11T00:25:13;17.55;57.42
66722;SHT31;53633;49.932;10.884;2022-08-11T00:27:40;17.42;57.32
66722;SHT31;53633;49.932;10.884;2022-08-11T00:30:09;17.50;57.23
66722;SHT31;53633;49.932;10.884;2022-08-11T00:32:37;17.68;56.52
66722;SHT31;53633;49.932;10.884;2022-08-11T00:35:07;17.54;56.77
66722;SHT31;53633;49.932;10.884;2022-08-11T00:37:57;17.77;56.03
66722;SHT31;53633;49.932;10.884;2022-08-11T00:40:31;18.16;54.70
66722;SHT31;53633;49.932;10.884;2022-08-11T00:43:12;17.92;55.14
66722;SHT31;53633;49.932;10.884;2022-08-11T00:46:02;17.82;55.70
66722;SHT31;53633;49.932;10.884;2022-08-11T00:48:35;17.50;55.87
66722;SHT31;53633;49.932;10.884;2022-08-11T00:51:14;17.68;56.00
66722;SHT31;53633;49.932;10.884;2022-08-11T00:53:51;17.65;56.33
66722;SHT31;53633;49.932;10.884;2022-08-11T00:56:43;17.57;56.23
66722;SHT31;53633;49.932;10.884;2022-08-11T00:59:45;17.89;55.64
66722;SHT31;53633;49.932;10.884;2022-08-11T01:02:16;17.50;57.08
66722;SHT31;53633;49.932;10.884;2022-08-11T01:08:06;17.68;56.53
66722;SHT31;53633;49.932;10.884;2022-08-11T01:10:47;17.65;55.99
66722;SHT31;53633;49.932;10.884;2022-08-11T01:13:35;17.42;57.05
66722;SHT31;53633;49.932;10.884;2022-08-11T01:19:42;17.19;57.76
66722;SHT31;53633;49.932;10.884;2022-08-11T01:26:24;16.71;58.47
66722;SHT31;53633;49.932;10.884;2022-08-11T01:32:14;16.78;59.21
66722;SHT31;53633;49.932;10.884;2022-08-11T01:35:21;16.37;59.87
66722;SHT31;53633;49.932;10.884;2022-08-11T01:38:11;16.40;60.80
66722;SHT31;53633;49.932;10.884;2022-08-11T01:41:00;16.20;60.36
66722;SHT31;53633;49.932;10.884;2022-08-11T01:44:08;15.93;61.44
66722;SHT31;53633;49.932;10.884;2022-08-11T01:46:43;16.04;61.37
66722;SHT31;53633;49.932;10.884;2022-08-11T01:49:16;15.86;61.39
66722;SHT31;53633;49.932;10.884;2022-08-11T01:52:14;16.09;61.61
66722;SHT31;53633;49.932;10.884;2022-08-11T01:55:09;15.73;61.46
66722;SHT31;53633;49.932;10.884;2022-08-11T01:57:43;16.11;61.79
66722;SHT31;53633;49.932;10.884;2022-08-11T02:00:15;15.73;62.13
66722;SHT31;53633;49.932;10.884;2022-08-11T02:02:50;15.66;63.16
66722;SHT31;53633;49.932;10.884;2022-08-11T02:05:40;15.54;62.81
66722;SHT31;53633;49.932;10.884;2022-08-11T02:08:25;15.42;63.57
66722;SHT31;53633;49.932;10.884;2022-08-11T02:11:07;15.34;63.91
66722;SHT31;53633;49.932;10.884;2022-08-11T02:13:43;15.30;64.07
66722;SHT31;53633;49.932;10.884;2022-08-11T02:16:20;15.32;63.73
66722;SHT31;53633;49.932;10.884;2022-08-11T02:18:54;15.70;63.36
66722;SHT31;53633;49.932;10.884;2022-08-11T02:21:29;15.75;62.73
66722;SHT31;53633;49.932;10.884;2022-08-11T02:24:05;15.82;62.21
66722;SHT31;53633;49.932;10.884;2022-08-11T02:26:40;16.03;62.13
66722;SHT31;53633;49.932;10.884;2022-08-11T02:29:14;15.97;62.23
66722;SHT31;53633;49.932;10.884;2022-08-11T02:31:51;16.11;61.68
66722;SHT31;53633;49.932;10.884;2022-08-11T02:34:44;16.59;60.87
66722;SHT31;53633;49.932;10.884;2022-08-11T02:37:36;16.48;60.36
66722;SHT31;53633;49.932;10.884;2022-08-11T02:40:20;16.71;59.91
66722;SHT31;53633;49.932;10.884;2022-08-11T02:42:55;16.89;59.27
66722;SHT31;53633;49.932;10.884;2022-08-11T02:45:45;17.04;58.92
66722;SHT31;53633;49.932;10.884;2022-08-11T02:48:23;17.06;58.94
66722;SHT31;53633;49.932;10.884;2022-08-11T02:51:03;16.96;59.27
66722;SHT31;53633;49.932;10.884;2022-08-11T02:53:38;16.68;59.76
66722;SHT31;53633;49.932;10.884;2022-08-11T02:56:13;16.69;59.78
66722;SHT31;53633;49.932;10.884;2022-08-11T02:58:49;16.38;61.00
66722;SHT31;53633;49.932;10.884;2022-08-11T03:01:23;16.45;61.07
66722;SHT31;53633;49.932;10.884;2022-08-11T03:03:59;16.49;60.49
66722;SHT31;53633;49.932;10.884;2022-08-11T03:06:34;16.55;59.84
66722;SHT31;53633;49.932;10.884;2022-08-11T03:09:09;16.72;59.58
66722;SHT31;53633;49.932;10.884;2022-08-11T03:11:51;16.47;60.60
66722;SHT31;53633;49.932;10.884;2022-08-11T03:14:28;16.79;59.41
66722;SHT31;53633;49.932;10.884;2022-08-11T03:17:02;16.62;59.75
66722;SHT31;53633;49.932;10.884;2022-08-11T03:19:37;16.73;59.80
66722;SHT31;53633;49.932;10.884;2022-08-11T03:22:17;16.65;59.72
66722;SHT31;53633;49.932;10.884;2022-08-11T03:24:55;16.31;60.79
66722;SHT31;53633;49.932;10.884;2022-08-11T03:27:47;15.85;61.97
66722;SHT31;53633;49.932;10.884;2022-08-11T03:30:20;15.94;62.63
66722;SHT31;53633;49.932;10.884;2022-08-11T03:32:57;16.07;62.18
66722;SHT31;53633;49.932;10.884;2022-08-11T03:35:27;16.30;61.12
66722;SHT31;53633;49.932;10.884;2022-08-11T03:38:01;16.28;60.95
66722;SHT31;53633;49.932;10.884;2022-08-11T03:40:51;16.35;61.04
66722;SHT31;53633;49.932;10.884;2022-08-11T03:43:41;16.40;61.21
66722;SHT31;53633;49.932;10.884;2022-08-11T03:46:34;16.42;60.44
66722;SHT31;53633;49.932;10.884;2022-08-11T03:49:09;15.83;62.11
66722;SHT31;53633;49.932;10.884;2022-08-11T03:51:47;15.92;62.17
66722;SHT31;53633;49.932;10.884;2022-08-11T03:54:27;16.03;62.21
66722;SHT31;53633;49.932;10.884;2022-08-11T04:00:34;16.09;61.45
66722;SHT31;53633;49.932;10.884;2022-08-11T04:09:49;16.30;61.53
66722;SHT31;53633;49.932;10.884;2022-08-11T04:12:58;16.42;61.25
66722;SHT31;53633;49.932;10.884;2022-08-11T04:15:49;16.58;60.80
66722;SHT31;53633;49.932;10.884;2022-08-11T04:24:57;16.31;61.46
66722;SHT31;53633;49.932;10.884;2022-08-11T04:28:03;16.44;60.88
66722;SHT31;53633;49.932;10.884;2022-08-11T04:30:49;16.57;60.84
66722;SHT31;53633;49.932;10.884;2022-08-11T04:33:39;16.48;60.73
66722;SHT31;53633;49.932;10.884;2022-08-11T04:36:22;16.61;60.67
66722;SHT31;53633;49.932;10.884;2022-08-11T04:39:07;16.90;59.55
66722;SHT31;53633;49.932;10.884;2022-08-11T04:41:59;16.93;59.69
66722;SHT31;53633;49.932;10.884;2022-08-11T04:48:05;16.87;59.49
66722;SHT31;53633;49.932;10.884;2022-08-11T04:50:44;17.04;59.48
66722;SHT31;53633;49.932;10.884;2022-08-11T04:53:49;17.10;59.11
66722;SHT31;53633;49.932;10.884;2022-08-11T04:56:20;17.20;59.40
66722;SHT31;53633;49.932;10.884;2022-08-11T04:59:01;17.42;58.59
66722;SHT31;53633;49.932;10.884;2022-08-11T05:01:42;17.57;58.16
66722;SHT31;53633;49.932;10.884;2022-08-11T05:04:42;17.52;58.19
66722;SHT31;53633;49.932;10.884;2022-08-11T05:07:50;17.60;58.20
66722;SHT31;53633;49.932;10.884;2022-08-11T05:10:36;17.89;57.48
66722;SHT31;53633;49.932;10.884;2022-08-11T05:13:09;18.06;56.69
66722;SHT31;53633;49.932;10.884;2022-08-11T05:15:44;18.19;56.78
66722;SHT31;53633;49.932;10.884;2022-08-11T05:18:21;18.58;55.59
66722;SHT31;53633;49.932;10.884;2022-08-11T05:20:54;19.54;53.55
66722;SHT31;53633;49.932;10.884;2022-08-11T05:23:25;21.34;48.87
66722;SHT31;53633;49.932;10.884;2022-08-11T05:25:54;22.66;45.74
66722;SHT31;53633;49.932;10.884;2022-08-11T05:28:49;23.92;43.33
66722;SHT31;53633;49.932;10.884;2022-08-11T05:31:19;24.51;42.16
66722;SHT31;53633;49.932;10.884;2022-08-11T05:33:50;24.86;41.20
66722;SHT31;53633;49.932;10.884;2022-08-11T05:36:27;25.65;39.48
66722;SHT31;53633;49.932;10.884;2022-08-11T05:38:59;25.50;39.57
66722;SHT31;53633;49.932;10.884;2022-08-11T05:41:27;25.68;39.45
66722;SHT31;53633;49.932;10.884;2022-08-11T05:43:57;25.99;38.79
66722;SHT31;53633;49.932;10.884;2022-08-11T05:46:44;25.84;38.78
66722;SHT31;53633;49.932;10.884;2022-08-11T05:49:12;25.84;39.07
66722;SHT31;53633;49.932;10.884;2022-08-11T05:51:42;26.03;38.96
66722;SHT31;53633;49.932;10.884;2022-08-11T05:54:21;26.23;38.60
66722;SHT31;53633;49.932;10.884;2022-08-11T05:56:56;26.51;38.14
66722;SHT31;53633;49.932;10.884;2022-08-11T05:59:26;26.83;37.85
66722;SHT31;53633;49.932;10.884;2022-08-11T06:01:59;27.56;36.49
66722;SHT31;53633;49.932;10.884;2022-08-11T06:04:27;28.08;35.55
66722;SHT31;53633;49.932;10.884;2022-08-11T06:06:57;27.71;36.14
66722;SHT31;53633;49.932;10.884;2022-08-11T06:09:30;27.96;35.94
66722;SHT31;53633;49.932;10.884;2022-08-11T06:12:02;28.46;35.10
66722;SHT31;53633;49.932;10.884;2022-08-11T06:14:29;28.39;34.88
66722;SHT31;53633;49.932;10.884;2022-08-11T06:16:58;28.34;35.60
66722;SHT31;53633;49.932;10.884;2022-08-11T06:19:37;28.34;35.41
66722;SHT31;53633;49.932;10.884;2022-08-11T06:22:07;28.35;35.13
66722;SHT31;53633;49.932;10.884;2022-08-11T06:24:37;28.63;35.24
66722;SHT31;53633;49.932;10.884;2022-08-11T06:27:05;28.62;35.67
66722;SHT31;53633;49.932;10.884;2022-08-11T06:29:46;29.00;34.82
66722;SHT31;53633;49.932;10.884;2022-08-11T06:32:23;29.00;35.13
66722;SHT31;53633;49.932;10.884;2022-08-11T06:35:11;28.97;34.86
66722;SHT31;53633;49.932;10.884;2022-08-11T06:38:06;29.00;35.30
66722;SHT31;53633;49.932;10.884;2022-08-11T06:40:39;29.37;34.83
66722;SHT31;53633;49.932;10.884;2022-08-11T06:43:15;28.77;35.34
66722;SHT31;53633;49.932;10.884;2022-08-11T06:45:50;28.79;34.68
66722;SHT31;53633;49.932;10.884;2022-08-11T06:48:20;29.32;34.66
66722;SHT31;53633;49.932;10.884;2022-08-11T06:50:49;29.47;33.66
66722;SHT31;53633;49.932;10.884;2022-08-11T06:53:19;29.11;34.94
66722;SHT31;53633;49.932;10.884;2022-08-11T06:55:47;28.59;36.36
66722;SHT31;53633;49.932;10.884;2022-08-11T06:58:27;28.83;35.44
66722;SHT31;53633;49.932;10.884;2022-08-11T07:00:55;28.52;36.61
66722;SHT31;53633;49.932;10.884;2022-08-11T07:03:25;28.48;37.37
66722;SHT31;53633;49.932;10.884;2022-08-11T07:05:59;28.57;36.37
66722;SHT31;53633;49.932;10.884;2022-08-11T07:09:12;28.42;36.84
66722;SHT31;53633;49.932;10.884;2022-08-11T07:11:57;28.83;36.94
66722;SHT31;53633;49.932;10.884;2022-08-11T07:14:27;29.06;36.39
66722;SHT31;53633;49.932;10.884;2022-08-11T07:16:59;29.39;35.99
66722;SHT31;53633;49.932;10.884;2022-08-11T07:19:28;29.44;35.93
66722;SHT31;53633;49.932;10.884;2022-08-11T07:21:56;29.48;35.71
66722;SHT31;53633;49.932;10.884;2022-08-11T07:24:34;29.70;34.42
66722;SHT31;53633;49.932;10.884;2022-08-11T07:27:24;30.40;33.30
66722;SHT31;53633;49.932;10.884;2022-08-11T07:29:56;30.76;32.24
66722;SHT31;53633;49.932;10.884;2022-08-11T07:32:27;31.27;32.77
66722;SHT31;53633;49.932;10.884;2022-08-11T07:34:58;31.45;32.57
66722;SHT31;53633;49.932;10.884;2022-08-11T07:37:30;32.06;31.99
66722;SHT31;53633;49.932;10.884;2022-08-11T07:39:59;32.75;30.49
66722;SHT31;53633;49.932;10.884;2022-08-11T07:42:30;33.43;28.41
66722;SHT31;53633;49.932;10.884;2022-08-11T07:44:58;33.63;28.06
66722;SHT31;53633;49.932;10.884;2022-08-11T07:47:25;34.41;27.53
66722;SHT31;53633;49.932;10.884;2022-08-11T07:49:52;34.62;27.75
66722;SHT31;53633;49.932;10.884;2022-08-11T07:52:20;33.91;26.49
66722;SHT31;53633;49.932;10.884;2022-08-11T07:54:47;32.91;27.20
66722;SHT31;53633;49.932;10.884;2022-08-11T07:57:18;32.43;27.70
66722;SHT31;53633;49.932;10.884;2022-08-11T08:00:06;32.39;28.41
66722;SHT31;53633;49.932;10.884;2022-08-11T08:02:35;32.43;27.52
66722;SHT31;53633;49.932;10.884;2022-08-11T08:05:05;31.89;28.06
66722;SHT31;53633;49.932;10.884;2022-08-11T08:07:32;31.79;28.11
66722;SHT31;53633;49.932;10.884;2022-08-11T08:10:00;31.22;29.14
66722;SHT31;53633;49.932;10.884;2022-08-11T08:12:29;30.59;29.70
66722;SHT31;53633;49.932;10.884;2022-08-11T08:14:56;30.65;30.02
66722;SHT31;53633;49.932;10.884;2022-08-11T08:17:26;30.90;29.60
66722;SHT31;53633;49.932;10.884;2022-08-11T08:19:53;30.24;30.05
66722;SHT31;53633;49.932;10.884;2022-08-11T08:22:20;29.82;29.80
66722;SHT31;53633;49.932;10.884;2022-08-11T08:25:05;30.20;30.36
66722;SHT31;53633;49.932;10.884;2022-08-11T08:27:35;30.54;29.32
66722;SHT31;53633;49.932;10.884;2022-08-11T08:30:03;30.97;29.44
66722;SHT31;53633;49.932;10.884;2022-08-11T08:32:30;31.54;28.47
66722;SHT31;53633;49.932;10.884;2022-08-11T08:34:58;31.16;28.08
66722;SHT31;53633;49.932;10.884;2022-08-11T08:37:25;29.93;29.38
66722;SHT31;53633;49.932;10.884;2022-08-11T08:40:13;30.25;28.77
66722;SHT31;53633;49.932;10.884;2022-08-11T08:42:48;30.59;28.96
66722;SHT31;53633;49.932;10.884;2022-08-11T08:45:15;30.51;28.06
66722;SHT31;53633;49.932;10.884;2022-08-11T08:47:45;30.28;28.38
66722;SHT31;53633;49.932;10.884;2022-08-11T08:50:20;30.23;28.28
66722;SHT31;53633;49.932;10.884;2022-08-11T08:52:56;30.10;28.36
66722;SHT31;53633;49.932;10.884;2022-08-11T08:55:25;30.47;28.39
66722;SHT31;53633;49.932;10.884;2022-08-11T08:57:55;29.93;27.96
66722;SHT31;53633;49.932;10.884;2022-08-11T09:00:22;29.83;28.72
66722;SHT31;53633;49.932;10.884;2022-08-11T09:02:50;30.10;28.26
66722;SHT31;53633;49.932;10.884;2022-08-11T09:05:18;30.82;28.25
66722;SHT31;53633;49.932;10.884;2022-08-11T09:07:46;30.54;27.52
66722;SHT31;53633;49.932;10.884;2022-08-11T09:10:14;30.51;27.64
66722;SHT31;53633;49.932;10.884;2022-08-11T09:12:44;30.06;27.91
66722;SHT31;53633;49.932;10.884;2022-08-11T09:15:12;29.86;28.84
66722;SHT31;53633;49.932;10.884;2022-08-11T09:17:47;30.13;28.85
66722;SHT31;53633;49.932;10.884;2022-08-11T09:20:19;30.65;28.21
66722;SHT31;53633;49.932;10.884;2022-08-11T09:22:47;30.85;27.87
66722;SHT31;53633;49.932;10.884;2022-08-11T09:25:35;31.19;28.35
66722;SHT31;53633;49.932;10.884;2022-08-11T09:28:02;30.76;28.19
66722;SHT31;53633;49.932;10.884;2022-08-11T09:30:31;30.82;28.39
66722;SHT31;53633;49.932;10.884;2022-08-11T09:33:00;30.59;28.46
66722;SHT31;53633;49.932;10.884;2022-08-11T09:35:28;31.22;27.85
66722;SHT31;53633;49.932;10.884;2022-08-11T09:37:56;31.50;27.24
66722;SHT31;53633;49.932;10.884;2022-08-11T09:40:24;30.95;27.56
66722;SHT31;53633;49.932;10.884;2022-08-11T09:42:53;30.97;27.52
66722;SHT31;53633;49.932;10.884;2022-08-11T09:45:20;31.55;27.03
66722;SHT31;53633;49.932;10.884;2022-08-11T09:47:49;31.02;26.34
66722;SHT31;53633;49.932;10.884;2022-08-11T09:50:16;31.33;26.82
66722;SHT31;53633;49.932;10.884;2022-08-11T09:52:44;31.89;26.58
66722;SHT31;53633;49.932;10.884;2022-08-11T09:55:31;30.97;25.26
66722;SHT31;53633;49.932;10.884;2022-08-11T09:57:59;30.96;25.44
66722;SHT31;53633;49.932;10.884;2022-08-11T10:00:31;31.04;25.22
66722;SHT31;53633;49.932;10.884;2022-08-11T10:02:59;30.72;26.14
66722;SHT31;53633;49.932;10.884;2022-08-11T10:05:26;30.24;26.59
66722;SHT31;53633;49.932;10.884;2022-08-11T10:07:55;30.42;26.28
66722;SHT31;53633;49.932;10.884;2022-08-11T10:10:23;31.06;25.63
66722;SHT31;53633;49.932;10.884;2022-08-11T10:12:55;31.10;26.03
66722;SHT31;53633;49.932;10.884;2022-08-11T10:15:23;31.48;25.79
66722;SHT31;53633;49.932;10.884;2022-08-11T10:17:54;31.23;26.11
66722;SHT31;53633;49.932;10.884;2022-08-11T10:20:24;31.19;26.11
66722;SHT31;53633;49.932;10.884;2022-08-11T10:22:51;30.68;26.70
66722;SHT31;53633;49.932;10.884;2022-08-11T10:25:19;30.49;27.08
66722;SHT31;53633;49.932;10.884;2022-08-11T10:28:06;30.21;27.24
66722;SHT31;53633;49.932;10.884;2022-08-11T10:30:54;29.72;28.18
66722;SHT31;53633;49.932;10.884;2022-08-11T10:33:22;29.47;28.59
66722;SHT31;53633;49.932;10.884;2022-08-11T10:36:06;29.18;28.13
66722;SHT31;53633;49.932;10.884;2022-08-11T10:38:42;28.90;27.93
66722;SHT31;53633;49.932;10.884;2022-08-11T10:41:09;28.74;27.86
66722;SHT31;53633;49.932;10.884;2022-08-11T10:43:38;28.90;27.71
66722;SHT31;53633;49.932;10.884;2022-08-11T10:46:25;28.67;28.39
66722;SHT31;53633;49.932;10.884;2022-08-11T10:48:57;28.72;28.16
66722;SHT31;53633;49.932;10.884;2022-08-11T10:51:26;28.79;28.04
66722;SHT31;53633;49.932;10.884;2022-08-11T10:54:13;28.34;27.98
66722;SHT31;53633;49.932;10.884;2022-08-11T10:56:41;28.21;28.52
66722;SHT31;53633;49.932;10.884;2022-08-11T10:59:08;28.36;28.97
66722;SHT31;53633;49.932;10.884;2022-08-11T11:01:39;28.49;29.25
66722;SHT31;53633;49.932;10.884;2022-08-11T11:04:07;28.48;28.38
66722;SHT31;53633;49.932;10.884;2022-08-11T11:06:45;28.41;28.27
66722;SHT31;53633;49.932;10.884;2022-08-11T11:09:17;28.04;27.97
66722;SHT31;53633;49.932;10.884;2022-08-11T11:11:48;28.12;28.02
66722;SHT31;53633;49.932;10.884;2022-08-11T11:14:17;28.19;28.01
66722;SHT31;53633;49.932;10.884;2022-08-11T11:16:45;28.26;28.55
66722;SHT31;53633;49.932;10.884;2022-08-11T11:19:12;28.24;28.30
66722;SHT31;53633;49.932;10.884;2022-08-11T11:21:40;28.36;29.09
66722;SHT31;53633;49.932;10.884;2022-08-11T11:24:15;28.31;29.31
66722;SHT31;53633;49.932;10.884;2022-08-11T11:26:50;28.25;29.34
66722;SHT31;53633;49.932;10.884;2022-08-11T11:29:48;28.32;29.66
66722;SHT31;53633;49.932;10.884;2022-08-11T11:32:23;28.25;28.63
66722;SHT31;53633;49.932;10.884;2022-08-11T11:35:19;28.32;28.14
66722;SHT31;53633;49.932;10.884;2022-08-11T11:37:52;28.24;29.02
66722;SHT31;53633;49.932;10.884;2022-08-11T11:40:30;28.24;28.12
66722;SHT31;53633;49.932;10.884;2022-08-11T11:42:58;28.08;28.41
66722;SHT31;53633;49.932;10.884;2022-08-11T11:45:26;28.08;27.82
66722;SHT31;53633;49.932;10.884;2022-08-11T11:47:55;28.19;26.96
66722;SHT31;53633;49.932;10.884;2022-08-11T11:50:24;28.26;27.66
66722;SHT31;53633;49.932;10.884;2022-08-11T11:52:59;28.32;27.87
66722;SHT31;53633;49.932;10.884;2022-08-11T11:55:27;28.41;27.80
66722;SHT31;53633;49.932;10.884;2022-08-11T11:57:56;28.55;27.60
66722;SHT31;53633;49.932;10.884;2022-08-11T12:00:28;28.31;28.10
66722;SHT31;53633;49.932;10.884;2022-08-11T12:03:01;28.48;28.12
66722;SHT31;53633;49.932;10.884;2022-08-11T12:05:30;28.49;27.42
66722;SHT31;53633;49.932;10.884;2022-08-11T12:08:01;28.43;27.43
66722;SHT31;53633;49.932;10.884;2022-08-11T12:10:39;28.41;27.65
66722;SHT31;53633;49.932;10.884;2022-08-11T12:13:06;28.53;28.46
66722;SHT31;53633;49.932;10.884;2022-08-11T12:15:33;28.89;27.99
66722;SHT31;53633;49.932;10.884;2022-08-11T12:18:20;28.62;27.57
66722;SHT31;53633;49.932;10.884;2022-08-11T12:20:47;28.60;27.85
66722;SHT31;53633;49.932;10.884;2022-08-11T12:23:16;28.57;26.47
66722;SHT31;53633;49.932;10.884;2022-08-11T12:25:43;28.48;26.47
66722;SHT31;53633;49.932;10.884;2022-08-11T12:28:10;28.43;26.61
66722;SHT31;53633;49.932;10.884;2022-08-11T12:30:38;28.48;27.11
66722;SHT31;53633;49.932;10.884;2022-08-11T12:33:05;28.55;27.68
66722;SHT31;53633;49.932;10.884;2022-08-11T12:35:32;28.53;26.86
66722;SHT31;53633;49.932;10.884;2022-08-11T12:37:59;28.60;26.72
66722;SHT31;53633;49.932;10.884;2022-08-11T12:40:37;28.57;27.42
66722;SHT31;53633;49.932;10.884;2022-08-11T12:43:28;28.55;26.34
66722;SHT31;53633;49.932;10.884;2022-08-11T12:46:06;28.57;25.86
66722;SHT31;53633;49.932;10.884;2022-08-11T12:48:35;28.67;25.56
66722;SHT31;53633;49.932;10.884;2022-08-11T12:51:24;28.79;26.32
66722;SHT31;53633;49.932;10.884;2022-08-11T12:53:54;28.66;26.65
66722;SHT31;53633;49.932;10.884;2022-08-11T12:56:27;28.57;26.79
66722;SHT31;53633;49.932;10.884;2022-08-11T12:58:57;28.56;26.52
66722;SHT31;53633;49.932;10.884;2022-08-11T13:01:24;28.72;26.89
66722;SHT31;53633;49.932;10.884;2022-08-11T13:03:51;28.82;27.24
66722;SHT31;53633;49.932;10.884;2022-08-11T13:06:23;28.89;26.51
66722;SHT31;53633;49.932;10.884;2022-08-11T13:08:51;29.08;27.08
66722;SHT31;53633;49.932;10.884;2022-08-11T13:11:19;28.89;26.42
66722;SHT31;53633;49.932;10.884;2022-08-11T13:13:49;28.84;26.19
66722;SHT31;53633;49.932;10.884;2022-08-11T13:16:24;28.83;26.27
66722;SHT31;53633;49.932;10.884;2022-08-11T13:18:51;28.66;26.38
66722;SHT31;53633;49.932;10.884;2022-08-11T13:21:20;28.74;26.62
66722;SHT31;53633;49.932;10.884;2022-08-11T13:23:48;28.93;26.83
66722;SHT31;53633;49.932;10.884;2022-08-11T13:26:33;28.77;26.93
66722;SHT31;53633;49.932;10.884;2022-08-11T13:29:20;28.70;26.74
66722;SHT31;53633;49.932;10.884;2022-08-11T13:31:48;28.73;26.53
66722;SHT31;53633;49.932;10.884;2022-08-11T13:34:16;28.83;26.28
66722;SHT31;53633;49.932;10.884;2022-08-11T13:36:45;28.67;26.24
66722;SHT31;53633;49.932;10.884;2022-08-11T13:39:13;28.72;26.22
66722;SHT31;53633;49.932;10.884;2022-08-11T13:41:41;28.82;25.90
66722;SHT31;53633;49.932;10.884;2022-08-11T13:44:10;28.97;25.69
66722;SHT31;53633;49.932;10.884;2022-08-11T13:46:39;28.90;25.62
66722;SHT31;53633;49.932;10.884;2022-08-11T13:49:09;28.82;25.75
66722;SHT31;53633;49.932;10.884;2022-08-11T13:51:37;28.82;25.77
66722;SHT31;53633;49.932;10.884;2022-08-11T13:54:05;28.86;25.91
66722;SHT31;53633;49.932;10.884;2022-08-11T13:56:34;29.08;26.00
66722;SHT31;53633;49.932;10.884;2022-08-11T13:59:02;28.94;25.59
66722;SHT31;53633;49.932;10.884;2022-08-11T14:01:32;28.79;25.90
66722;SHT31;53633;49.932;10.884;2022-08-11T14:04:25;28.79;25.95
66722;SHT31;53633;49.932;10.884;2022-08-11T14:06:59;28.79;25.60
66722;SHT31;53633;49.932;10.884;2022-08-11T14:09:33;28.76;25.31
66722;SHT31;53633;49.932;10.884;2022-08-11T14:12:01;28.91;24.51
66722;SHT31;53633;49.932;10.884;2022-08-11T14:14:53;28.97;24.68
66722;SHT31;53633;49.932;10.884;2022-08-11T14:17:22;29.11;25.38
66722;SHT31;53633;49.932;10.884;2022-08-11T14:20:11;28.87;25.52
66722;SHT31;53633;49.932;10.884;2022-08-11T14:23:02;28.74;25.79
66722;SHT31;53633;49.932;10.884;2022-08-11T14:25:29;28.73;26.62
66722;SHT31;53633;49.932;10.884;2022-08-11T14:28:16;28.74;26.71
66722;SHT31;53633;49.932;10.884;2022-08-11T14:31:03;28.72;26.21
66722;SHT31;53633;49.932;10.884;2022-08-11T14:33:31;28.89;26.09
66722;SHT31;53633;49.932;10.884;2022-08-11T14:36:22;28.82;25.60
66722;SHT31;53633;49.932;10.884;2022-08-11T14:38:49;28.72;25.61
66722;SHT31;53633;49.932;10.884;2022-08-11T14:41:18;28.72;25.00
66722;SHT31;53633;49.932;10.884;2022-08-11T14:43:45;28.89;24.49
66722;SHT31;53633;49.932;10.884;2022-08-11T14:46:32;29.03;24.28
66722;SHT31;53633;49.932;10.884;2022-08-11T14:49:00;29.00;24.38
66722;SHT31;53633;49.932;10.884;2022-08-11T14:51:28;29.01;24.91
66722;SHT31;53633;49.932;10.884;2022-08-11T14:53:56;28.91;25.26
66722;SHT31;53633;49.932;10.884;2022-08-11T14:56:24;28.90;25.61
66722;SHT31;53633;49.932;10.884;2022-08-11T14:58:51;28.90;26.15
66722;SHT31;53633;49.932;10.884;2022-08-11T15:01:18;28.94;26.23
66722;SHT31;53633;49.932;10.884;2022-08-11T15:03:45;28.93;25.99
66722;SHT31;53633;49.932;10.884;2022-08-11T15:06:33;28.89;25.85
66722;SHT31;53633;49.932;10.884;2022-08-11T15:09:00;28.86;26.16
66722;SHT31;53633;49.932;10.884;2022-08-11T15:11:34;28.89;26.15
66722;SHT31;53633;49.932;10.884;2022-08-11T15:14:03;28.84;26.40
66722;SHT31;53633;49.932;10.884;2022-08-11T15:16:31;28.82;26.88
66722;SHT31;53633;49.932;10.884;2022-08-11T15:18:59;28.77;26.70
66722;SHT31;53633;49.932;10.884;2022-08-11T15:21:25;28.79;26.76
66722;SHT31;53633;49.932;10.884;2022-08-11T15:23:53;28.84;26.72
66722;SHT31;53633;49.932;10.884;2022-08-11T15:26:25;28.87;27.29
66722;SHT31;53633;49.932;10.884;2022-08-11T15:28:53;28.90;27.55
66722;SHT31;53633;49.932;10.884;2022-08-11T15:31:21;28.83;27.25
66722;SHT31;53633;49.932;10.884;2022-08-11T15:33:51;28.89;26.92
66722;SHT31;53633;49.932;10.884;2022-08-11T15:36:19;28.86;26.54
66722;SHT31;53633;49.932;10.884;2022-08-11T15:38:49;28.87;26.72
66722;SHT31;53633;49.932;10.884;2022-08-11T15:41:27;28.89;26.90
66722;SHT31;53633;49.932;10.884;2022-08-11T15:43:55;28.83;26.79
66722;SHT31;53633;49.932;10.884;2022-08-11T15:46:28;28.74;26.35
66722;SHT31;53633;49.932;10.884;2022-08-11T15:48:59;28.82;27.31
66722;SHT31;53633;49.932;10.884;2022-08-11T15:51:31;28.82;27.64
66722;SHT31;53633;49.932;10.884;2022-08-11T15:54:02;28.83;27.83
66722;SHT31;53633;49.932;10.884;2022-08-11T15:56:39;28.69;28.36
66722;SHT31;53633;49.932;10.884;2022-08-11T15:59:09;28.79;28.81
66722;SHT31;53633;49.932;10.884;2022-08-11T16:01:56;28.80;28.57
66722;SHT31;53633;49.932;10.884;2022-08-11T16:04:27;28.84;28.83
66722;SHT31;53633;49.932;10.884;2022-08-11T16:06:57;28.77;28.58
66722;SHT31;53633;49.932;10.884;2022-08-11T16:09:31;28.69;28.61
66722;SHT31;53633;49.932;10.884;2022-08-11T16:12:21;28.72;28.32
66722;SHT31;53633;49.932;10.884;2022-08-11T16:14:53;28.64;27.38
66722;SHT31;53633;49.932;10.884;2022-08-11T16:17:25;28.62;27.86
66722;SHT31;53633;49.932;10.884;2022-08-11T16:19:53;28.59;28.12
66722;SHT31;53633;49.932;10.884;2022-08-11T16:22:23;28.62;28.12
66722;SHT31;53633;49.932;10.884;2022-08-11T16:24:52;28.57;28.85
66722;SHT31;53633;49.932;10.884;2022-08-11T16:27:43;28.57;29.08
66722;SHT31;53633;49.932;10.884;2022-08-11T16:30:12;28.52;29.17
66722;SHT31;53633;49.932;10.884;2022-08-11T16:32:41;28.51;29.66
66722;SHT31;53633;49.932;10.884;2022-08-11T16:35:12;28.45;29.45
66722;SHT31;53633;49.932;10.884;2022-08-11T16:37:40;28.46;29.50